createdAt,value
2017-05-17T00:00:11.213Z,1019.10
2017-05-17T00:01:12.630Z,1019.09
2017-05-17T00:02:14.046Z,1019.08
2017-05-17T00:03:15.464Z,1019.07
2017-05-17T00:04:16.881Z,1019.06
2017-05-17T00:05:18.298Z,1019.07
2017-05-17T00:06:19.718Z,1019.05
2017-05-17T00:07:21.137Z,1019.06
2017-05-17T00:08:22.553Z,1019.06
2017-05-17T00:09:23.968Z,1019.03
2017-05-17T00:10:25.385Z,1019.06
2017-05-17T00:11:26.802Z,1019.06
2017-05-17T00:12:28.218Z,1019.05
2017-05-17T00:13:29.638Z,1019.04
2017-05-17T00:14:31.055Z,1019.08
2017-05-17T00:15:32.471Z,1019.06
2017-05-17T00:16:33.890Z,1019.05
2017-05-17T00:17:35.305Z,1019.01
2017-05-17T00:18:36.724Z,1018.98
2017-05-17T00:19:38.143Z,1018.99
2017-05-17T00:20:39.560Z,1019.01
2017-05-17T00:21:40.979Z,1018.99
2017-05-17T00:22:42.394Z,1018.98
2017-05-17T00:23:43.813Z,1018.98
2017-05-17T00:24:45.226Z,1018.99
2017-05-17T00:25:46.647Z,1018.99
2017-05-17T00:26:48.061Z,1018.93
2017-05-17T00:27:49.482Z,1018.90
2017-05-17T00:28:50.901Z,1018.92
2017-05-17T00:29:52.318Z,1018.89
2017-05-17T00:30:53.734Z,1018.93
2017-05-17T00:31:55.150Z,1018.90
2017-05-17T00:32:56.566Z,1018.93
2017-05-17T00:33:57.983Z,1018.89
2017-05-17T00:34:59.402Z,1018.92
2017-05-17T00:36:00.822Z,1018.90
2017-05-17T00:37:02.238Z,1018.92
2017-05-17T00:38:03.651Z,1018.88
2017-05-17T00:39:05.071Z,1018.90
2017-05-17T00:40:06.488Z,1018.86
2017-05-17T00:41:07.905Z,1018.83
2017-05-17T00:42:09.324Z,1018.85
2017-05-17T00:43:10.743Z,1018.79
2017-05-17T00:44:12.159Z,1018.82
2017-05-17T00:45:13.574Z,1018.81
2017-05-17T00:46:14.990Z,1018.77
2017-05-17T00:47:16.408Z,1018.76
2017-05-17T00:48:17.827Z,1018.75
2017-05-17T00:49:19.245Z,1018.76
2017-05-17T00:50:20.664Z,1018.75
2017-05-17T00:51:22.080Z,1018.74
2017-05-17T00:52:23.495Z,1018.72
2017-05-17T00:53:24.915Z,1018.69
2017-05-17T00:54:26.332Z,1018.69
2017-05-17T00:55:27.751Z,1018.68
2017-05-17T00:56:29.170Z,1018.67
2017-05-17T00:57:30.588Z,1018.65
2017-05-17T00:58:32.005Z,1018.64
2017-05-17T00:59:33.418Z,1018.63
2017-05-17T01:00:34.838Z,1018.59
2017-05-17T01:01:36.253Z,1018.60
2017-05-17T01:02:37.671Z,1018.60
2017-05-17T01:03:39.091Z,1018.58
2017-05-17T01:04:40.510Z,1018.60
2017-05-17T01:05:41.927Z,1018.58
2017-05-17T01:06:43.342Z,1018.54
2017-05-17T01:07:44.758Z,1018.54
2017-05-17T01:08:46.175Z,1018.54
2017-05-17T01:09:47.590Z,1018.47
2017-05-17T01:10:49.009Z,1018.47
2017-05-17T01:11:50.428Z,1018.50
2017-05-17T01:12:51.842Z,1018.47
2017-05-17T01:13:53.261Z,1018.46
2017-05-17T01:14:54.677Z,1018.43
2017-05-17T01:15:56.092Z,1018.44
2017-05-17T01:16:57.511Z,1018.46
2017-05-17T01:17:58.936Z,1018.44
2017-05-17T01:19:00.356Z,1018.46
2017-05-17T01:20:01.775Z,1018.47
2017-05-17T01:21:03.189Z,1018.47
2017-05-17T01:22:04.607Z,1018.41
2017-05-17T01:23:06.026Z,1018.44
2017-05-17T01:24:07.446Z,1018.42
2017-05-17T01:25:08.864Z,1018.39
2017-05-17T01:26:10.283Z,1018.43
2017-05-17T01:27:11.701Z,1018.41
2017-05-17T01:28:13.115Z,1018.45
2017-05-17T01:29:14.532Z,1018.41
2017-05-17T01:30:15.951Z,1018.38
2017-05-17T01:31:17.369Z,1018.39
2017-05-17T01:32:18.812Z,1018.39
2017-05-17T01:33:20.230Z,1018.37
2017-05-17T01:34:21.646Z,1018.35
2017-05-17T01:35:23.063Z,1018.35
2017-05-17T01:36:24.480Z,1018.32
2017-05-17T01:37:25.898Z,1018.32
2017-05-17T01:38:27.318Z,1018.29
2017-05-17T01:39:28.734Z,1018.28
2017-05-17T01:40:30.153Z,1018.27
2017-05-17T01:41:31.569Z,1018.24
2017-05-17T01:42:32.986Z,1018.25
2017-05-17T01:43:34.401Z,1018.25
2017-05-17T01:44:35.819Z,1018.21
2017-05-17T01:45:37.237Z,1018.21
2017-05-17T01:46:38.658Z,1018.22
2017-05-17T01:47:40.074Z,1018.16
2017-05-17T01:48:41.491Z,1018.22
2017-05-17T01:49:42.906Z,1018.22
2017-05-17T01:50:44.324Z,1018.21
2017-05-17T01:51:45.739Z,1018.21
2017-05-17T01:52:47.159Z,1018.18
2017-05-17T01:53:48.580Z,1018.19
2017-05-17T01:54:49.996Z,1018.19
2017-05-17T01:55:51.412Z,1018.18
2017-05-17T01:56:52.828Z,1018.22
2017-05-17T01:57:54.250Z,1018.19
2017-05-17T01:58:55.661Z,1018.21
2017-05-17T01:59:57.079Z,1018.19
2017-05-17T02:00:58.497Z,1018.18
2017-05-17T02:01:59.918Z,1018.20
2017-05-17T02:03:01.331Z,1018.20
2017-05-17T02:04:02.748Z,1018.19
2017-05-17T02:05:04.165Z,1018.17
2017-05-17T02:06:05.582Z,1018.14
2017-05-17T02:07:07.000Z,1018.15
2017-05-17T02:08:08.419Z,1018.13
2017-05-17T02:09:09.837Z,1018.10
2017-05-17T02:10:11.251Z,1018.13
2017-05-17T02:11:12.665Z,1018.11
2017-05-17T02:12:14.084Z,1018.11
2017-05-17T02:13:15.502Z,1018.11
2017-05-17T02:14:16.919Z,1018.12
2017-05-17T02:15:18.338Z,1018.09
2017-05-17T02:16:19.761Z,1018.06
2017-05-17T02:17:21.174Z,1018.06
2017-05-17T02:18:22.593Z,1018.02
2017-05-17T02:19:24.008Z,1018.02
2017-05-17T02:20:25.424Z,1018.02
2017-05-17T02:21:26.840Z,1018.04
2017-05-17T02:22:28.258Z,1017.99
2017-05-17T02:23:29.677Z,1017.96
2017-05-17T02:24:31.092Z,1017.97
2017-05-17T02:25:32.507Z,1017.98
2017-05-17T02:26:33.924Z,1017.95
2017-05-17T02:27:35.340Z,1017.96
2017-05-17T02:28:36.758Z,1017.91
2017-05-17T02:29:38.177Z,1017.94
2017-05-17T02:30:39.597Z,1017.95
2017-05-17T02:31:41.010Z,1017.93
2017-05-17T02:32:42.431Z,1017.93
2017-05-17T02:33:43.844Z,1017.91
2017-05-17T02:34:45.263Z,1017.89
2017-05-17T02:35:46.679Z,1017.88
2017-05-17T02:36:48.099Z,1017.87
2017-05-17T02:37:49.518Z,1017.86
2017-05-17T02:38:50.932Z,1017.87
2017-05-17T02:39:52.348Z,1017.86
2017-05-17T02:40:53.765Z,1017.87
2017-05-17T02:41:55.183Z,1017.82
2017-05-17T02:42:56.601Z,1017.85
2017-05-17T02:43:58.020Z,1017.83
2017-05-17T02:44:59.438Z,1017.79
2017-05-17T02:46:00.855Z,1017.77
2017-05-17T02:47:02.283Z,1017.81
2017-05-17T02:48:03.699Z,1017.80
2017-05-17T02:49:05.118Z,1017.78
2017-05-17T02:50:06.537Z,1017.80
2017-05-17T02:51:07.958Z,1017.79
2017-05-17T02:52:09.374Z,1017.79
2017-05-17T02:53:10.789Z,1017.76
2017-05-17T02:54:12.206Z,1017.74
2017-05-17T02:55:13.623Z,1017.77
2017-05-17T02:56:15.041Z,1017.76
2017-05-17T02:57:16.459Z,1017.76
2017-05-17T02:58:17.876Z,1017.75
2017-05-17T02:59:19.295Z,1017.77
2017-05-17T03:00:20.710Z,1017.74
2017-05-17T03:01:22.125Z,1017.71
2017-05-17T03:02:23.542Z,1017.73
2017-05-17T03:03:24.961Z,1017.71
2017-05-17T03:04:26.379Z,1017.70
2017-05-17T03:05:27.798Z,1017.72
2017-05-17T03:06:29.216Z,1017.74
2017-05-17T03:07:30.632Z,1017.71
2017-05-17T03:08:32.052Z,1017.72
2017-05-17T03:09:33.465Z,1017.69
2017-05-17T03:10:34.882Z,1017.72
2017-05-17T03:11:36.300Z,1017.69
2017-05-17T03:12:37.718Z,1017.68
2017-05-17T03:13:39.137Z,1017.67
2017-05-17T03:14:40.555Z,1017.70
2017-05-17T03:15:41.972Z,1017.67
2017-05-17T03:16:43.434Z,1017.70
2017-05-17T03:17:44.804Z,1017.66
2017-05-17T03:18:46.224Z,1017.65
2017-05-17T03:19:47.641Z,1017.65
2017-05-17T03:20:49.060Z,1017.62
2017-05-17T03:21:50.476Z,1017.60
2017-05-17T03:22:51.891Z,1017.61
2017-05-17T03:23:53.309Z,1017.63
2017-05-17T03:24:54.725Z,1017.57
2017-05-17T03:25:56.144Z,1017.59
2017-05-17T03:26:57.563Z,1017.56
2017-05-17T03:27:58.984Z,1017.60
2017-05-17T03:29:00.397Z,1017.56
2017-05-17T03:30:01.815Z,1017.58
2017-05-17T03:31:03.230Z,1017.52
2017-05-17T03:32:04.646Z,1017.54
2017-05-17T03:33:06.063Z,1017.52
2017-05-17T03:34:07.481Z,1017.54
2017-05-17T03:35:08.900Z,1017.57
2017-05-17T03:36:10.316Z,1017.55
2017-05-17T03:37:11.730Z,1017.55
2017-05-17T03:38:13.148Z,1017.56
2017-05-17T03:39:14.568Z,1017.54
2017-05-17T03:40:15.987Z,1017.50
2017-05-17T03:41:17.405Z,1017.53
2017-05-17T03:42:18.828Z,1017.53
2017-05-17T03:43:20.245Z,1017.52
2017-05-17T03:44:21.661Z,1017.52
2017-05-17T03:45:23.083Z,1017.53
2017-05-17T03:46:24.501Z,1017.55
2017-05-17T03:47:25.922Z,1017.54
2017-05-17T03:48:27.342Z,1017.55
2017-05-17T03:49:28.763Z,1017.54
2017-05-17T03:50:30.179Z,1017.51
2017-05-17T03:51:31.595Z,1017.52
2017-05-17T03:52:33.014Z,1017.53
2017-05-17T03:53:34.431Z,1017.56
2017-05-17T03:54:35.850Z,1017.54
2017-05-17T03:55:37.272Z,1017.54
2017-05-17T03:56:38.690Z,1017.50
2017-05-17T03:57:40.108Z,1017.51
2017-05-17T03:58:41.528Z,1017.54
2017-05-17T03:59:42.945Z,1017.53
2017-05-17T04:00:44.366Z,1017.54
2017-05-17T04:01:45.785Z,1017.53
2017-05-17T04:02:47.210Z,1017.51
2017-05-17T04:03:48.625Z,1017.53
2017-05-17T04:04:50.041Z,1017.54
2017-05-17T04:05:51.458Z,1017.54
2017-05-17T04:06:52.874Z,1017.53
2017-05-17T04:07:54.359Z,1017.52
2017-05-17T04:08:55.748Z,1017.50
2017-05-17T04:09:58.004Z,1017.52
2017-05-17T04:10:59.456Z,1017.47
2017-05-17T04:12:00.873Z,1017.49
2017-05-17T04:13:02.291Z,1017.48
2017-05-17T04:14:03.713Z,1017.47
2017-05-17T04:15:05.192Z,1017.47
2017-05-17T04:16:07.111Z,1017.48
2017-05-17T04:17:09.086Z,1017.44
2017-05-17T04:18:10.510Z,1017.49
2017-05-17T04:19:11.932Z,1017.49
2017-05-17T04:20:13.861Z,1017.48
2017-05-17T04:21:15.740Z,1017.47
2017-05-17T04:22:17.162Z,1017.49
2017-05-17T04:23:18.583Z,1017.44
2017-05-17T04:24:20.006Z,1017.48
2017-05-17T04:25:21.430Z,1017.45
2017-05-17T04:26:22.850Z,1017.50
2017-05-17T04:27:24.272Z,1017.48
2017-05-17T04:28:25.694Z,1017.47
2017-05-17T04:29:27.115Z,1017.43
2017-05-17T04:30:28.537Z,1017.46
2017-05-17T04:31:29.960Z,1017.47
2017-05-17T04:32:31.382Z,1017.45
2017-05-17T04:33:32.801Z,1017.44
2017-05-17T04:34:34.223Z,1017.43
2017-05-17T04:35:35.643Z,1017.44
2017-05-17T04:36:37.065Z,1017.39
2017-05-17T04:37:38.487Z,1017.44
2017-05-17T04:38:39.913Z,1017.41
2017-05-17T04:39:41.335Z,1017.46
2017-05-17T04:40:42.754Z,1017.45
2017-05-17T04:41:44.181Z,1017.47
2017-05-17T04:42:45.595Z,1017.44
2017-05-17T04:43:47.012Z,1017.42
2017-05-17T04:44:48.433Z,1017.44
2017-05-17T04:45:49.860Z,1017.45
2017-05-17T04:46:51.283Z,1017.44
2017-05-17T04:47:52.702Z,1017.44
2017-05-17T04:48:54.121Z,1017.45
2017-05-17T04:49:55.543Z,1017.45
2017-05-17T04:50:56.968Z,1017.46
2017-05-17T04:51:58.388Z,1017.45
2017-05-17T04:52:59.813Z,1017.45
2017-05-17T04:54:01.235Z,1017.43
2017-05-17T04:55:02.654Z,1017.46
2017-05-17T04:56:04.075Z,1017.46
2017-05-17T04:57:05.495Z,1017.46
2017-05-17T04:58:06.920Z,1017.44
2017-05-17T04:59:08.341Z,1017.43
2017-05-17T05:00:09.762Z,1017.45
2017-05-17T05:01:11.183Z,1017.43
2017-05-17T05:02:12.602Z,1017.42
2017-05-17T05:03:14.019Z,1017.37
2017-05-17T05:04:15.440Z,1017.41
2017-05-17T05:05:16.859Z,1017.39
2017-05-17T05:06:20.398Z,1017.38
2017-05-17T05:07:21.049Z,1017.36
2017-05-17T05:08:22.470Z,1017.33
2017-05-17T05:09:23.888Z,1017.35
2017-05-17T05:10:25.308Z,1017.33
2017-05-17T05:11:26.776Z,1017.32
2017-05-17T05:12:28.150Z,1017.36
2017-05-17T05:13:29.568Z,1017.34
2017-05-17T05:14:30.991Z,1017.32
2017-05-17T05:15:32.410Z,1017.33
2017-05-17T05:16:33.831Z,1017.35
2017-05-17T05:17:35.250Z,1017.37
2017-05-17T05:18:36.671Z,1017.34
2017-05-17T05:19:38.090Z,1017.33
2017-05-17T05:20:39.515Z,1017.37
2017-05-17T05:21:40.930Z,1017.35
2017-05-17T05:22:42.352Z,1017.32
2017-05-17T05:23:43.773Z,1017.33
2017-05-17T05:24:45.193Z,1017.33
2017-05-17T05:25:46.614Z,1017.37
2017-05-17T05:26:48.032Z,1017.37
2017-05-17T05:27:49.454Z,1017.34
2017-05-17T05:28:50.876Z,1017.33
2017-05-17T05:29:52.297Z,1017.33
2017-05-17T05:30:53.718Z,1017.34
2017-05-17T05:31:55.134Z,1017.30
2017-05-17T05:32:56.554Z,1017.30
2017-05-17T05:33:57.972Z,1017.35
2017-05-17T05:34:59.395Z,1017.31
2017-05-17T05:36:00.820Z,1017.29
2017-05-17T05:37:02.240Z,1017.29
2017-05-17T05:38:03.658Z,1017.25
2017-05-17T05:39:05.081Z,1017.25
2017-05-17T05:40:06.502Z,1017.24
2017-05-17T05:41:07.922Z,1017.24
2017-05-17T05:42:09.344Z,1017.20
2017-05-17T05:43:10.764Z,1017.18
2017-05-17T05:44:12.188Z,1017.20
2017-05-17T05:45:13.608Z,1017.16
2017-05-17T05:46:15.028Z,1017.17
2017-05-17T05:47:16.453Z,1017.18
2017-05-17T05:48:17.867Z,1017.15
2017-05-17T05:49:19.298Z,1017.18
2017-05-17T05:50:20.755Z,1017.17
2017-05-17T05:51:22.175Z,1017.14
2017-05-17T05:52:23.599Z,1017.18
2017-05-17T05:53:25.013Z,1017.15
2017-05-17T05:54:26.431Z,1017.16
2017-05-17T05:55:27.850Z,1017.13
2017-05-17T05:56:29.271Z,1017.17
2017-05-17T05:57:30.694Z,1017.10
2017-05-17T05:58:32.162Z,1017.11
2017-05-17T05:59:33.535Z,1017.09
2017-05-17T06:00:34.953Z,1017.07
2017-05-17T06:01:36.373Z,1017.09
2017-05-17T06:02:37.792Z,1017.08
2017-05-17T06:03:39.213Z,1017.00
2017-05-17T06:04:40.636Z,1017.01
2017-05-17T06:05:42.059Z,1016.99
2017-05-17T06:06:47.600Z,1017.03
2017-05-17T06:07:48.978Z,1017.01
2017-05-17T06:08:50.397Z,1016.97
2017-05-17T06:09:51.817Z,1016.99
2017-05-17T06:10:53.239Z,1017.00
2017-05-17T06:11:54.660Z,1016.98
2017-05-17T06:12:56.082Z,1016.98
2017-05-17T06:13:57.502Z,1016.99
2017-05-17T06:14:58.923Z,1016.98
2017-05-17T06:16:00.342Z,1017.02
2017-05-17T06:17:01.760Z,1017.04
2017-05-17T06:18:03.181Z,1017.04
2017-05-17T06:19:04.605Z,1017.01
2017-05-17T06:20:06.028Z,1017.02
2017-05-17T06:21:07.445Z,1017.03
2017-05-17T06:22:08.864Z,1017.00
2017-05-17T06:23:10.311Z,1017.00
2017-05-17T06:24:11.731Z,1016.98
2017-05-17T06:25:13.151Z,1016.96
2017-05-17T06:26:14.573Z,1016.95
2017-05-17T06:27:15.997Z,1016.97
2017-05-17T06:28:17.414Z,1016.95
2017-05-17T06:29:18.831Z,1016.99
2017-05-17T06:30:20.251Z,1016.96
2017-05-17T06:31:21.671Z,1016.93
2017-05-17T06:32:24.524Z,1016.92
2017-05-17T06:33:28.719Z,1016.88
2017-05-17T06:34:32.840Z,1016.85
2017-05-17T06:35:37.249Z,1016.84
2017-05-17T06:36:40.901Z,1016.83
2017-05-17T06:37:45.008Z,1016.85
2017-05-17T06:38:49.527Z,1016.84
2017-05-17T06:39:53.166Z,1016.85
2017-05-17T06:40:57.420Z,1016.86
2017-05-17T06:42:01.118Z,1016.87
2017-05-17T06:43:03.901Z,1016.83
2017-05-17T06:44:07.667Z,1016.85
2017-05-17T06:45:09.046Z,1016.87
2017-05-17T06:46:10.467Z,1016.85
2017-05-17T06:47:11.888Z,1016.88
2017-05-17T06:48:13.331Z,1016.87
2017-05-17T06:49:14.754Z,1016.85
2017-05-17T06:50:16.175Z,1016.86
2017-05-17T06:51:20.907Z,1016.89
2017-05-17T06:52:22.329Z,1016.89
2017-05-17T06:53:23.758Z,1016.90
2017-05-17T06:54:25.181Z,1016.90
2017-05-17T06:55:30.193Z,1016.91
2017-05-17T06:56:31.688Z,1016.85
2017-05-17T06:57:33.066Z,1016.88
2017-05-17T06:58:34.485Z,1016.80
2017-05-17T06:59:35.908Z,1016.81
2017-05-17T07:00:37.329Z,1016.83
2017-05-17T07:01:38.750Z,1016.84
2017-05-17T07:02:40.174Z,1016.81
2017-05-17T07:03:41.598Z,1016.87
2017-05-17T07:04:46.754Z,1016.82
2017-05-17T07:05:48.181Z,1016.87
2017-05-17T07:06:49.601Z,1016.86
2017-05-17T07:07:51.334Z,1016.88
2017-05-17T07:08:52.759Z,1016.85
2017-05-17T07:09:54.182Z,1016.91
2017-05-17T07:10:55.604Z,1016.86
2017-05-17T07:11:57.032Z,1016.87
2017-05-17T07:12:58.456Z,1016.84
2017-05-17T07:14:02.752Z,1016.86
2017-05-17T07:15:04.416Z,1016.85
2017-05-17T07:16:07.579Z,1016.82
2017-05-17T07:17:10.045Z,1016.79
2017-05-17T07:18:11.467Z,1016.82
2017-05-17T07:19:12.890Z,1016.81
2017-05-17T07:20:17.212Z,1016.78
2017-05-17T07:21:18.860Z,1016.76
2017-05-17T07:22:20.286Z,1016.78
2017-05-17T07:23:21.709Z,1016.73
2017-05-17T07:24:24.268Z,1016.69
2017-05-17T07:25:27.126Z,1016.70
2017-05-17T07:26:31.847Z,1016.69
2017-05-17T07:27:33.223Z,1016.73
2017-05-17T07:28:38.059Z,1016.67
2017-05-17T07:29:39.513Z,1016.68
2017-05-17T07:30:40.935Z,1016.65
2017-05-17T07:31:42.359Z,1016.63
2017-05-17T07:32:43.783Z,1016.61
2017-05-17T07:33:45.203Z,1016.61
2017-05-17T07:34:46.625Z,1016.56
2017-05-17T07:35:48.051Z,1016.58
2017-05-17T07:36:50.296Z,1016.61
2017-05-17T07:37:53.814Z,1016.57
2017-05-17T07:38:55.486Z,1016.55
2017-05-17T07:39:56.911Z,1016.58
2017-05-17T07:41:02.391Z,1016.57
2017-05-17T07:42:07.960Z,1016.56
2017-05-17T07:43:13.821Z,1016.55
2017-05-17T07:44:16.604Z,1016.51
2017-05-17T07:45:18.026Z,1016.49
2017-05-17T07:46:19.450Z,1016.47
2017-05-17T07:47:23.320Z,1016.45
2017-05-17T07:48:25.187Z,1016.43
2017-05-17T07:49:26.608Z,1016.42
2017-05-17T07:50:28.030Z,1016.40
2017-05-17T07:51:29.454Z,1016.40
2017-05-17T07:52:30.875Z,1016.36
2017-05-17T07:53:32.299Z,1016.40
2017-05-17T07:54:33.727Z,1016.40
2017-05-17T07:55:35.147Z,1016.37
2017-05-17T07:56:36.841Z,1016.36
2017-05-17T07:57:38.263Z,1016.35
2017-05-17T07:58:39.684Z,1016.33
2017-05-17T07:59:42.446Z,1016.34
2017-05-17T08:00:44.477Z,1016.30
2017-05-17T08:01:45.901Z,1016.31
2017-05-17T08:02:47.324Z,1016.26
2017-05-17T08:03:48.745Z,1016.27
2017-05-17T08:04:54.251Z,1016.24
2017-05-17T08:05:55.636Z,1016.20
2017-05-17T08:07:01.524Z,1016.23
2017-05-17T08:08:05.346Z,1016.21
2017-05-17T08:09:10.077Z,1016.22
2017-05-17T08:10:11.770Z,1016.21
2017-05-17T08:11:13.191Z,1016.22
2017-05-17T08:12:14.611Z,1016.23
2017-05-17T08:13:16.034Z,1016.22
2017-05-17T08:14:20.034Z,1016.19
2017-05-17T08:15:21.741Z,1016.19
2017-05-17T08:16:23.164Z,1016.20
2017-05-17T08:17:24.586Z,1016.20
2017-05-17T08:18:30.204Z,1016.17
2017-05-17T08:19:31.586Z,1016.13
2017-05-17T08:20:33.010Z,1016.15
2017-05-17T08:21:34.432Z,1016.16
2017-05-17T08:22:39.488Z,1016.10
2017-05-17T08:23:40.881Z,1016.13
2017-05-17T08:24:42.308Z,1016.11
2017-05-17T08:25:47.655Z,1016.07
2017-05-17T08:26:49.070Z,1016.10
2017-05-17T08:27:50.491Z,1016.08
2017-05-17T08:28:51.920Z,1016.06
2017-05-17T08:29:53.344Z,1016.06
2017-05-17T08:30:54.767Z,1016.05
2017-05-17T08:31:56.190Z,1016.01
2017-05-17T08:32:57.606Z,1016.01
2017-05-17T08:33:59.030Z,1016.01
2017-05-17T08:35:00.463Z,1015.98
2017-05-17T08:36:01.878Z,1015.98
2017-05-17T08:37:03.299Z,1015.94
2017-05-17T08:38:04.726Z,1015.88
2017-05-17T08:39:06.145Z,1015.94
2017-05-17T08:40:07.568Z,1015.90
2017-05-17T08:41:08.987Z,1015.88
2017-05-17T08:42:10.412Z,1015.84
2017-05-17T08:43:11.838Z,1015.88
2017-05-17T08:44:13.261Z,1015.84
2017-05-17T08:45:14.685Z,1015.82
2017-05-17T08:46:16.105Z,1015.85
2017-05-17T08:47:17.524Z,1015.78
2017-05-17T08:48:18.947Z,1015.77
2017-05-17T08:49:20.370Z,1015.80
2017-05-17T08:50:21.792Z,1015.81
2017-05-17T08:51:23.486Z,1015.76
2017-05-17T08:52:24.917Z,1015.76
2017-05-17T08:53:26.339Z,1015.78
2017-05-17T08:54:27.765Z,1015.76
2017-05-17T08:55:29.182Z,1015.76
2017-05-17T08:56:30.603Z,1015.65
2017-05-17T08:57:32.041Z,1015.75
2017-05-17T08:58:33.466Z,1015.71
2017-05-17T08:59:34.886Z,1015.66
2017-05-17T09:00:36.314Z,1015.63
2017-05-17T09:01:37.728Z,1015.63
2017-05-17T09:02:39.151Z,1015.58
2017-05-17T09:03:40.571Z,1015.52
2017-05-17T09:04:41.995Z,1015.48
2017-05-17T09:05:43.425Z,1015.47
2017-05-17T09:06:44.853Z,1015.47
2017-05-17T09:07:46.271Z,1015.49
2017-05-17T09:08:47.699Z,1015.43
2017-05-17T09:09:49.128Z,1015.49
2017-05-17T09:10:50.550Z,1015.47
2017-05-17T09:11:51.974Z,1015.42
2017-05-17T09:12:53.407Z,1015.36
2017-05-17T09:13:54.829Z,1015.38
2017-05-17T09:14:56.251Z,1015.38
2017-05-17T09:15:57.675Z,1015.37
2017-05-17T09:16:59.138Z,1015.30
2017-05-17T09:18:00.557Z,1015.30
2017-05-17T09:19:01.985Z,1015.35
2017-05-17T09:20:03.407Z,1015.28
2017-05-17T09:21:04.834Z,1015.29
2017-05-17T09:22:06.257Z,1015.29
2017-05-17T09:23:07.675Z,1015.24
2017-05-17T09:24:09.098Z,1015.21
2017-05-17T09:25:10.516Z,1015.19
2017-05-17T09:26:11.938Z,1015.17
2017-05-17T09:27:13.366Z,1015.12
2017-05-17T09:28:14.794Z,1015.12
2017-05-17T09:29:16.212Z,1015.11
2017-05-17T09:30:17.633Z,1015.08
2017-05-17T09:31:19.055Z,1015.06
2017-05-17T09:32:20.479Z,1015.00
2017-05-17T09:33:21.902Z,1015.06
2017-05-17T09:34:23.326Z,1015.00
2017-05-17T09:35:24.752Z,1015.00
2017-05-17T09:36:26.174Z,1015.00
2017-05-17T09:37:27.596Z,1014.92
2017-05-17T09:38:29.017Z,1014.96
2017-05-17T09:39:30.442Z,1014.90
2017-05-17T09:40:31.910Z,1014.95
2017-05-17T09:41:33.327Z,1014.91
2017-05-17T09:42:34.749Z,1014.94
2017-05-17T09:43:36.171Z,1014.96
2017-05-17T09:44:37.590Z,1014.89
2017-05-17T09:45:39.010Z,1014.86
2017-05-17T09:46:40.434Z,1014.81
2017-05-17T09:47:41.861Z,1014.84
2017-05-17T09:48:43.281Z,1014.86
2017-05-17T09:49:44.707Z,1014.82
2017-05-17T09:50:46.128Z,1014.84
2017-05-17T09:51:47.551Z,1014.80
2017-05-17T09:52:48.971Z,1014.78
2017-05-17T09:53:50.392Z,1014.79
2017-05-17T09:54:51.816Z,1014.76
2017-05-17T09:55:53.241Z,1014.68
2017-05-17T09:56:54.664Z,1014.70
2017-05-17T09:57:56.085Z,1014.70
2017-05-17T09:58:57.501Z,1014.67
2017-05-17T09:59:58.927Z,1014.64
2017-05-17T10:01:00.350Z,1014.60
2017-05-17T10:02:01.771Z,1014.65
2017-05-17T10:03:03.198Z,1014.63
2017-05-17T10:04:04.621Z,1014.57
2017-05-17T10:05:06.044Z,1014.58
2017-05-17T10:06:07.466Z,1014.57
2017-05-17T10:07:08.887Z,1014.56
2017-05-17T10:08:10.310Z,1014.49
2017-05-17T10:09:11.735Z,1014.50
2017-05-17T10:10:13.159Z,1014.52
2017-05-17T10:11:14.581Z,1014.51
2017-05-17T10:12:16.004Z,1014.50
2017-05-17T10:13:17.423Z,1014.42
2017-05-17T10:14:18.843Z,1014.45
2017-05-17T10:15:20.266Z,1014.36
2017-05-17T10:16:21.692Z,1014.35
2017-05-17T10:17:23.114Z,1014.30
2017-05-17T10:18:24.555Z,1014.35
2017-05-17T10:19:25.978Z,1014.36
2017-05-17T10:20:27.402Z,1014.27
2017-05-17T10:21:28.827Z,1014.26
2017-05-17T10:22:30.247Z,1014.20
2017-05-17T10:23:31.671Z,1014.21
2017-05-17T10:24:33.094Z,1014.19
2017-05-17T10:25:34.526Z,1014.19
2017-05-17T10:26:35.995Z,1014.22
2017-05-17T10:27:37.365Z,1014.14
2017-05-17T10:28:38.792Z,1014.18
2017-05-17T10:29:40.213Z,1014.12
2017-05-17T10:30:41.635Z,1014.09
2017-05-17T10:31:43.062Z,1014.05
2017-05-17T10:32:44.491Z,1014.03
2017-05-17T10:33:45.906Z,1014.01
2017-05-17T10:34:47.327Z,1014.00
2017-05-17T10:35:48.747Z,1013.97
2017-05-17T10:36:50.169Z,1013.96
2017-05-17T10:37:51.595Z,1013.94
2017-05-17T10:38:53.015Z,1013.92
2017-05-17T10:39:54.441Z,1013.90
2017-05-17T10:40:55.860Z,1013.87
2017-05-17T10:41:57.282Z,1013.90
2017-05-17T10:42:58.704Z,1013.79
2017-05-17T10:44:00.127Z,1013.82
2017-05-17T10:45:01.551Z,1013.75
2017-05-17T10:46:02.974Z,1013.79
2017-05-17T10:47:04.398Z,1013.78
2017-05-17T10:48:05.822Z,1013.74
2017-05-17T10:49:07.242Z,1013.74
2017-05-17T10:50:08.664Z,1013.76
2017-05-17T10:51:10.088Z,1013.74
2017-05-17T10:52:11.510Z,1013.77
2017-05-17T10:53:12.936Z,1013.71
2017-05-17T10:54:14.358Z,1013.68
2017-05-17T10:55:15.781Z,1013.68
2017-05-17T10:56:17.203Z,1013.64
2017-05-17T10:57:18.626Z,1013.60
2017-05-17T10:58:20.056Z,1013.57
2017-05-17T10:59:21.482Z,1013.58
2017-05-17T11:00:22.909Z,1013.52
2017-05-17T11:01:24.334Z,1013.48
2017-05-17T11:02:25.755Z,1013.45
2017-05-17T11:03:27.181Z,1013.51
2017-05-17T11:04:28.602Z,1013.49
2017-05-17T11:05:30.025Z,1013.54
2017-05-17T11:06:31.449Z,1013.49
2017-05-17T11:07:32.879Z,1013.40
2017-05-17T11:08:34.295Z,1013.36
2017-05-17T11:09:35.718Z,1013.33
2017-05-17T11:10:37.137Z,1013.32
2017-05-17T11:11:38.559Z,1013.43
2017-05-17T11:12:39.984Z,1013.28
2017-05-17T11:13:41.407Z,1013.39
2017-05-17T11:14:42.831Z,1013.34
2017-05-17T11:15:44.256Z,1013.37
2017-05-17T11:16:45.676Z,1013.40
2017-05-17T11:17:47.100Z,1013.31
2017-05-17T11:18:48.521Z,1013.33
2017-05-17T11:19:49.943Z,1013.25
2017-05-17T11:20:51.368Z,1013.18
2017-05-17T11:21:52.797Z,1013.27
2017-05-17T11:22:54.221Z,1013.31
2017-05-17T11:23:55.640Z,1013.24
2017-05-17T11:24:57.063Z,1013.23
2017-05-17T11:25:58.490Z,1013.29
2017-05-17T11:26:59.908Z,1013.29
2017-05-17T11:28:01.337Z,1013.13
2017-05-17T11:29:02.761Z,1013.11
2017-05-17T11:30:04.184Z,1013.20
2017-05-17T11:31:05.607Z,1013.24
2017-05-17T11:32:07.031Z,1013.16
2017-05-17T11:33:08.451Z,1013.14
2017-05-17T11:34:09.873Z,1013.10
2017-05-17T11:35:11.297Z,1013.06
2017-05-17T11:36:12.719Z,1013.06
2017-05-17T11:37:14.143Z,1013.11
2017-05-17T11:38:15.566Z,1013.09
2017-05-17T11:39:17.077Z,1013.06
2017-05-17T11:40:18.498Z,1013.00
2017-05-17T11:41:19.925Z,1013.04
2017-05-17T11:42:21.346Z,1013.01
2017-05-17T11:43:22.772Z,1012.98
2017-05-17T11:44:24.196Z,1012.92
2017-05-17T11:45:25.616Z,1012.97
2017-05-17T11:46:27.040Z,1012.98
2017-05-17T11:47:28.465Z,1012.90
2017-05-17T11:48:29.885Z,1012.92
2017-05-17T11:49:31.309Z,1012.96
2017-05-17T11:50:32.736Z,1012.87
2017-05-17T11:51:34.161Z,1012.87
2017-05-17T11:52:35.581Z,1012.85
2017-05-17T11:53:37.000Z,1012.87
2017-05-17T11:54:38.421Z,1012.88
2017-05-17T11:55:39.845Z,1012.86
2017-05-17T11:56:41.278Z,1012.78
2017-05-17T11:57:42.705Z,1012.88
2017-05-17T11:58:44.128Z,1012.75
2017-05-17T11:59:45.549Z,1012.77
2017-05-17T12:00:46.970Z,1012.80
2017-05-17T12:01:48.390Z,1012.81
2017-05-17T12:02:49.813Z,1012.74
2017-05-17T12:03:51.237Z,1012.73
2017-05-17T12:04:52.672Z,1012.74
2017-05-17T12:05:54.104Z,1012.69
2017-05-17T12:06:55.520Z,1012.65
2017-05-17T12:07:56.944Z,1012.73
2017-05-17T12:08:58.366Z,1012.68
2017-05-17T12:09:59.788Z,1012.57
2017-05-17T12:11:01.212Z,1012.64
2017-05-17T12:12:02.637Z,1012.62
2017-05-17T12:13:04.060Z,1012.55
2017-05-17T12:14:05.482Z,1012.55
2017-05-17T12:15:06.904Z,1012.54
2017-05-17T12:16:08.329Z,1012.48
2017-05-17T12:17:09.777Z,1012.51
2017-05-17T12:18:11.200Z,1012.49
2017-05-17T12:19:12.625Z,1012.39
2017-05-17T12:20:14.050Z,1012.43
2017-05-17T12:21:15.470Z,1012.42
2017-05-17T12:22:16.895Z,1012.42
2017-05-17T12:23:18.318Z,1012.36
2017-05-17T12:24:19.739Z,1012.41